sensor_id;sensor_type;location;lat;lon;timestamp;P1;durP1;ratioP1;P2;durP2;ratioP2
2175;SDS011;1094;49.902;10.876;2023-04-24T00:00:57;18.80;;;17.90;;
2175;SDS011;1094;49.902;10.876;2023-04-24T00:03:23;19.17;;;17.80;;
2175;SDS011;1094;49.902;10.876;2023-04-24T00:05:49;19.03;;;18.13;;
2175;SDS011;1094;49.902;10.876;2023-04-24T00:08:16;18.90;;;17.87;;
2175;SDS011;1094;49.902;10.876;2023-04-24T00:10:42;19.83;;;18.63;;
2175;SDS011;1094;49.902;10.876;2023-04-24T00:13:08;19.50;;;18.50;;
2175;SDS011;1094;49.902;10.876;2023-04-24T00:15:34;18.97;;;17.97;;
2175;SDS011;1094;49.902;10.876;2023-04-24T00:18:00;19.63;;;18.63;;
2175;SDS011;1094;49.902;10.876;2023-04-24T00:20:26;19.10;;;18.10;;
2175;SDS011;1094;49.902;10.876;2023-04-24T00:22:54;18.97;;;18.07;;
2175;SDS011;1094;49.902;10.876;2023-04-24T00:25:20;20.03;;;18.40;;
2175;SDS011;1094;49.902;10.876;2023-04-24T00:27:46;18.70;;;17.80;;
2175;SDS011;1094;49.902;10.876;2023-04-24T00:30:12;19.43;;;18.23;;
2175;SDS011;1094;49.902;10.876;2023-04-24T00:32:38;19.80;;;18.80;;
2175;SDS011;1094;49.902;10.876;2023-04-24T00:35:04;19.53;;;18.53;;
2175;SDS011;1094;49.902;10.876;2023-04-24T00:37:30;19.97;;;18.77;;
2175;SDS011;1094;49.902;10.876;2023-04-24T00:39:56;19.13;;;18.23;;
2175;SDS011;1094;49.902;10.876;2023-04-24T00:42:22;19.23;;;18.13;;
2175;SDS011;1094;49.902;10.876;2023-04-24T00:44:49;19.03;;;18.13;;
2175;SDS011;1094;49.902;10.876;2023-04-24T00:47:15;19.70;;;18.80;;
2175;SDS011;1094;49.902;10.876;2023-04-24T00:49:41;19.30;;;18.30;;
2175;SDS011;1094;49.902;10.876;2023-04-24T00:52:07;19.83;;;18.83;;
2175;SDS011;1094;49.902;10.876;2023-04-24T00:54:34;19.53;;;18.53;;
2175;SDS011;1094;49.902;10.876;2023-04-24T00:57:00;20.13;;;18.90;;
2175;SDS011;1094;49.902;10.876;2023-04-24T00:59:26;19.60;;;18.60;;
2175;SDS011;1094;49.902;10.876;2023-04-24T01:01:52;19.30;;;18.23;;
2175;SDS011;1094;49.902;10.876;2023-04-24T01:04:19;19.53;;;18.53;;
2175;SDS011;1094;49.902;10.876;2023-04-24T01:06:46;19.43;;;18.53;;
2175;SDS011;1094;49.902;10.876;2023-04-24T01:09:12;19.43;;;18.43;;
2175;SDS011;1094;49.902;10.876;2023-04-24T01:11:39;20.00;;;19.00;;
2175;SDS011;1094;49.902;10.876;2023-04-24T01:14:07;19.67;;;18.70;;
2175;SDS011;1094;49.902;10.876;2023-04-24T01:16:33;20.50;;;19.40;;
2175;SDS011;1094;49.902;10.876;2023-04-24T01:19:00;20.37;;;19.07;;
2175;SDS011;1094;49.902;10.876;2023-04-24T01:21:26;19.80;;;18.80;;
2175;SDS011;1094;49.902;10.876;2023-04-24T01:23:52;20.03;;;19.03;;
2175;SDS011;1094;49.902;10.876;2023-04-24T01:26:18;19.80;;;18.80;;
2175;SDS011;1094;49.902;10.876;2023-04-24T01:28:45;19.70;;;18.70;;
2175;SDS011;1094;49.902;10.876;2023-04-24T01:31:11;19.10;;;17.87;;
2175;SDS011;1094;49.902;10.876;2023-04-24T01:33:37;19.77;;;18.70;;
2175;SDS011;1094;49.902;10.876;2023-04-24T01:36:03;19.47;;;18.47;;
2175;SDS011;1094;49.902;10.876;2023-04-24T01:38:29;19.97;;;18.97;;
2175;SDS011;1094;49.902;10.876;2023-04-24T01:40:55;19.13;;;18.23;;
2175;SDS011;1094;49.902;10.876;2023-04-24T01:43:21;18.87;;;17.97;;
2175;SDS011;1094;49.902;10.876;2023-04-24T01:45:47;19.87;;;18.67;;
2175;SDS011;1094;49.902;10.876;2023-04-24T01:48:13;19.80;;;18.80;;
2175;SDS011;1094;49.902;10.876;2023-04-24T01:50:39;20.40;;;19.30;;
2175;SDS011;1094;49.902;10.876;2023-04-24T01:53:05;19.80;;;18.70;;
2175;SDS011;1094;49.902;10.876;2023-04-24T01:55:31;20.33;;;19.13;;
2175;SDS011;1094;49.902;10.876;2023-04-24T01:57:57;19.27;;;18.30;;
2175;SDS011;1094;49.902;10.876;2023-04-24T02:00:25;19.10;;;18.10;;
2175;SDS011;1094;49.902;10.876;2023-04-24T02:02:51;19.73;;;18.73;;
2175;SDS011;1094;49.902;10.876;2023-04-24T02:05:17;20.40;;;19.20;;
2175;SDS011;1094;49.902;10.876;2023-04-24T02:07:43;20.07;;;19.00;;
2175;SDS011;1094;49.902;10.876;2023-04-24T02:10:09;19.23;;;18.23;;
2175;SDS011;1094;49.902;10.876;2023-04-24T02:12:35;20.00;;;18.80;;
2175;SDS011;1094;49.902;10.876;2023-04-24T02:15:01;19.40;;;18.40;;
2175;SDS011;1094;49.902;10.876;2023-04-24T02:17:27;20.50;;;19.40;;
2175;SDS011;1094;49.902;10.876;2023-04-24T02:19:53;19.67;;;18.67;;
2175;SDS011;1094;49.902;10.876;2023-04-24T02:22:19;19.80;;;18.70;;
2175;SDS011;1094;49.902;10.876;2023-04-24T02:24:45;19.83;;;18.83;;
2175;SDS011;1094;49.902;10.876;2023-04-24T02:27:11;19.13;;;18.20;;
2175;SDS011;1094;49.902;10.876;2023-04-24T02:29:37;19.80;;;18.70;;
2175;SDS011;1094;49.902;10.876;2023-04-24T02:32:03;19.87;;;18.77;;
2175;SDS011;1094;49.902;10.876;2023-04-24T02:34:29;19.40;;;18.40;;
2175;SDS011;1094;49.902;10.876;2023-04-24T02:36:55;19.50;;;18.47;;
2175;SDS011;1094;49.902;10.876;2023-04-24T02:39:21;18.80;;;17.90;;
2175;SDS011;1094;49.902;10.876;2023-04-24T02:41:47;18.77;;;17.87;;
2175;SDS011;1094;49.902;10.876;2023-04-24T02:44:13;19.67;;;18.53;;
2175;SDS011;1094;49.902;10.876;2023-04-24T02:46:39;19.30;;;18.30;;
2175;SDS011;1094;49.902;10.876;2023-04-24T02:49:06;19.70;;;18.33;;
2175;SDS011;1094;49.902;10.876;2023-04-24T02:51:32;19.90;;;18.90;;
2175;SDS011;1094;49.902;10.876;2023-04-24T02:53:58;19.10;;;18.10;;
2175;SDS011;1094;49.902;10.876;2023-04-24T02:56:24;19.70;;;18.60;;
2175;SDS011;1094;49.902;10.876;2023-04-24T02:58:50;19.50;;;18.50;;
2175;SDS011;1094;49.902;10.876;2023-04-24T03:01:16;20.10;;;19.00;;
2175;SDS011;1094;49.902;10.876;2023-04-24T03:03:42;19.43;;;18.33;;
2175;SDS011;1094;49.902;10.876;2023-04-24T03:06:08;20.03;;;18.93;;
2175;SDS011;1094;49.902;10.876;2023-04-24T03:08:34;19.00;;;18.00;;
2175;SDS011;1094;49.902;10.876;2023-04-24T03:11:00;19.10;;;18.10;;
2175;SDS011;1094;49.902;10.876;2023-04-24T03:13:26;19.67;;;18.37;;
2175;SDS011;1094;49.902;10.876;2023-04-24T03:15:52;19.20;;;18.20;;
2175;SDS011;1094;49.902;10.876;2023-04-24T03:18:19;19.70;;;18.50;;
2175;SDS011;1094;49.902;10.876;2023-04-24T03:20:45;19.80;;;18.77;;
2175;SDS011;1094;49.902;10.876;2023-04-24T03:23:13;19.53;;;18.43;;
2175;SDS011;1094;49.902;10.876;2023-04-24T03:25:39;19.37;;;18.37;;
2175;SDS011;1094;49.902;10.876;2023-04-24T03:28:07;18.93;;;17.93;;
2175;SDS011;1094;49.902;10.876;2023-04-24T03:30:33;19.07;;;18.07;;
2175;SDS011;1094;49.902;10.876;2023-04-24T03:32:59;18.67;;;17.67;;
2175;SDS011;1094;49.902;10.876;2023-04-24T03:35:25;19.47;;;18.37;;
2175;SDS011;1094;49.902;10.876;2023-04-24T03:37:51;19.30;;;18.27;;
2175;SDS011;1094;49.902;10.876;2023-04-24T03:40:17;19.60;;;18.50;;
2175;SDS011;1094;49.902;10.876;2023-04-24T03:42:43;19.40;;;18.30;;
2175;SDS011;1094;49.902;10.876;2023-04-24T03:45:09;20.00;;;18.90;;
2175;SDS011;1094;49.902;10.876;2023-04-24T03:47:35;19.60;;;18.60;;
2175;SDS011;1094;49.902;10.876;2023-04-24T03:50:01;19.30;;;18.30;;
2175;SDS011;1094;49.902;10.876;2023-04-24T03:52:27;20.07;;;18.80;;
2175;SDS011;1094;49.902;10.876;2023-04-24T03:54:53;19.37;;;18.13;;
2175;SDS011;1094;49.902;10.876;2023-04-24T03:57:20;19.80;;;18.80;;
2175;SDS011;1094;49.902;10.876;2023-04-24T03:59:46;19.37;;;18.27;;
2175;SDS011;1094;49.902;10.876;2023-04-24T04:02:12;19.80;;;18.63;;
2175;SDS011;1094;49.902;10.876;2023-04-24T04:04:38;18.57;;;17.67;;
2175;SDS011;1094;49.902;10.876;2023-04-24T04:07:04;18.70;;;17.60;;
2175;SDS011;1094;49.902;10.876;2023-04-24T04:09:30;19.17;;;18.07;;
2175;SDS011;1094;49.902;10.876;2023-04-24T04:11:56;18.57;;;17.57;;
2175;SDS011;1094;49.902;10.876;2023-04-24T04:14:22;18.70;;;17.70;;
2175;SDS011;1094;49.902;10.876;2023-04-24T04:16:48;18.47;;;17.57;;
2175;SDS011;1094;49.902;10.876;2023-04-24T04:19:14;18.90;;;17.83;;
2175;SDS011;1094;49.902;10.876;2023-04-24T04:21:40;18.80;;;17.80;;
2175;SDS011;1094;49.902;10.876;2023-04-24T04:24:06;18.70;;;17.70;;
2175;SDS011;1094;49.902;10.876;2023-04-24T04:26:32;18.37;;;17.47;;
2175;SDS011;1094;49.902;10.876;2023-04-24T04:28:59;18.90;;;17.90;;
2175;SDS011;1094;49.902;10.876;2023-04-24T04:31:28;19.43;;;18.47;;
2175;SDS011;1094;49.902;10.876;2023-04-24T04:33:55;19.10;;;18.20;;
2175;SDS011;1094;49.902;10.876;2023-04-24T04:36:21;19.20;;;18.20;;
2175;SDS011;1094;49.902;10.876;2023-04-24T04:38:48;20.20;;;19.00;;
2175;SDS011;1094;49.902;10.876;2023-04-24T04:41:14;19.00;;;18.00;;
2175;SDS011;1094;49.902;10.876;2023-04-24T04:43:41;19.50;;;18.50;;
2175;SDS011;1094;49.902;10.876;2023-04-24T04:46:07;18.50;;;17.60;;
2175;SDS011;1094;49.902;10.876;2023-04-24T04:48:35;19.60;;;18.40;;
2175;SDS011;1094;49.902;10.876;2023-04-24T04:51:01;18.73;;;17.83;;
2175;SDS011;1094;49.902;10.876;2023-04-24T04:53:27;18.33;;;17.43;;
2175;SDS011;1094;49.902;10.876;2023-04-24T04:55:53;19.13;;;18.00;;
2175;SDS011;1094;49.902;10.876;2023-04-24T04:58:19;18.80;;;17.80;;
2175;SDS011;1094;49.902;10.876;2023-04-24T05:00:46;18.87;;;17.80;;
2175;SDS011;1094;49.902;10.876;2023-04-24T05:03:12;19.07;;;18.07;;
2175;SDS011;1094;49.902;10.876;2023-04-24T05:05:38;18.30;;;17.40;;
2175;SDS011;1094;49.902;10.876;2023-04-24T05:08:05;19.40;;;18.40;;
2175;SDS011;1094;49.902;10.876;2023-04-24T05:10:32;18.40;;;17.40;;
2175;SDS011;1094;49.902;10.876;2023-04-24T05:12:58;19.13;;;17.80;;
2175;SDS011;1094;49.902;10.876;2023-04-24T05:15:24;18.67;;;17.67;;
2175;SDS011;1094;49.902;10.876;2023-04-24T05:17:49;18.97;;;17.27;;
2175;SDS011;1094;49.902;10.876;2023-04-24T05:20:15;18.40;;;17.40;;
2175;SDS011;1094;49.902;10.876;2023-04-24T05:22:42;19.20;;;18.13;;
2175;SDS011;1094;49.902;10.876;2023-04-24T05:25:08;18.93;;;18.03;;
2175;SDS011;1094;49.902;10.876;2023-04-24T05:27:34;19.37;;;18.27;;
2175;SDS011;1094;49.902;10.876;2023-04-24T05:30:00;18.83;;;17.63;;
2175;SDS011;1094;49.902;10.876;2023-04-24T05:32:26;19.40;;;18.30;;
2175;SDS011;1094;49.902;10.876;2023-04-24T05:34:52;20.03;;;18.93;;
2175;SDS011;1094;49.902;10.876;2023-04-24T05:37:18;19.40;;;18.40;;
2175;SDS011;1094;49.902;10.876;2023-04-24T05:39:44;20.80;;;19.50;;
2175;SDS011;1094;49.902;10.876;2023-04-24T05:42:10;20.07;;;19.00;;
2175;SDS011;1094;49.902;10.876;2023-04-24T05:44:36;19.33;;;18.23;;
2175;SDS011;1094;49.902;10.876;2023-04-24T05:47:02;19.20;;;18.20;;
2175;SDS011;1094;49.902;10.876;2023-04-24T05:49:28;19.17;;;18.17;;
2175;SDS011;1094;49.902;10.876;2023-04-24T05:51:54;19.90;;;18.70;;
2175;SDS011;1094;49.902;10.876;2023-04-24T05:54:20;19.00;;;18.10;;
2175;SDS011;1094;49.902;10.876;2023-04-24T05:56:46;18.90;;;17.90;;
2175;SDS011;1094;49.902;10.876;2023-04-24T05:59:12;18.27;;;17.37;;
2175;SDS011;1094;49.902;10.876;2023-04-24T06:01:38;19.27;;;18.27;;
2175;SDS011;1094;49.902;10.876;2023-04-24T06:04:03;18.80;;;17.80;;
2175;SDS011;1094;49.902;10.876;2023-04-24T06:06:30;19.30;;;18.10;;
2175;SDS011;1094;49.902;10.876;2023-04-24T06:08:57;19.17;;;18.20;;
2175;SDS011;1094;49.902;10.876;2023-04-24T06:11:23;19.17;;;18.20;;
2175;SDS011;1094;49.902;10.876;2023-04-24T06:13:49;19.90;;;18.90;;
2175;SDS011;1094;49.902;10.876;2023-04-24T06:16:16;19.97;;;18.97;;
2175;SDS011;1094;49.902;10.876;2023-04-24T06:18:42;19.23;;;18.27;;
2175;SDS011;1094;49.902;10.876;2023-04-24T06:21:08;18.90;;;17.90;;
2175;SDS011;1094;49.902;10.876;2023-04-24T06:23:34;19.20;;;18.00;;
2175;SDS011;1094;49.902;10.876;2023-04-24T06:26:01;18.80;;;17.90;;
2175;SDS011;1094;49.902;10.876;2023-04-24T06:28:27;19.30;;;18.20;;
2175;SDS011;1094;49.902;10.876;2023-04-24T06:30:52;19.10;;;18.20;;
2175;SDS011;1094;49.902;10.876;2023-04-24T06:33:18;18.90;;;17.90;;
2175;SDS011;1094;49.902;10.876;2023-04-24T06:35:44;18.67;;;17.77;;
2175;SDS011;1094;49.902;10.876;2023-04-24T06:38:10;20.13;;;18.83;;
2175;SDS011;1094;49.902;10.876;2023-04-24T06:40:36;18.30;;;17.40;;
2175;SDS011;1094;49.902;10.876;2023-04-24T06:43:02;18.30;;;17.40;;
2175;SDS011;1094;49.902;10.876;2023-04-24T06:45:29;18.30;;;17.43;;
2175;SDS011;1094;49.902;10.876;2023-04-24T06:47:55;18.67;;;17.70;;
2175;SDS011;1094;49.902;10.876;2023-04-24T06:50:21;18.43;;;17.53;;
2175;SDS011;1094;49.902;10.876;2023-04-24T06:52:48;18.87;;;17.77;;
2175;SDS011;1094;49.902;10.876;2023-04-24T06:55:14;18.90;;;18.00;;
2175;SDS011;1094;49.902;10.876;2023-04-24T06:57:41;19.33;;;18.20;;
2175;SDS011;1094;49.902;10.876;2023-04-24T07:00:07;19.30;;;17.87;;
2175;SDS011;1094;49.902;10.876;2023-04-24T07:02:34;18.40;;;17.50;;
2175;SDS011;1094;49.902;10.876;2023-04-24T07:05:00;18.20;;;17.30;;
2175;SDS011;1094;49.902;10.876;2023-04-24T07:07:26;18.87;;;17.87;;
2175;SDS011;1094;49.902;10.876;2023-04-24T07:09:52;18.57;;;17.57;;
2175;SDS011;1094;49.902;10.876;2023-04-24T07:12:19;18.30;;;17.30;;
2175;SDS011;1094;49.902;10.876;2023-04-24T07:14:46;18.20;;;17.30;;
2175;SDS011;1094;49.902;10.876;2023-04-24T07:17:12;19.17;;;18.07;;
2175;SDS011;1094;49.902;10.876;2023-04-24T07:19:39;18.53;;;17.63;;
2175;SDS011;1094;49.902;10.876;2023-04-24T07:22:05;18.23;;;17.33;;
2175;SDS011;1094;49.902;10.876;2023-04-24T07:24:31;18.60;;;17.70;;
2175;SDS011;1094;49.902;10.876;2023-04-24T07:26:57;18.10;;;17.20;;
2175;SDS011;1094;49.902;10.876;2023-04-24T07:29:23;19.07;;;18.07;;
2175;SDS011;1094;49.902;10.876;2023-04-24T07:31:49;19.27;;;17.93;;
2175;SDS011;1094;49.902;10.876;2023-04-24T07:34:15;18.70;;;17.70;;
2175;SDS011;1094;49.902;10.876;2023-04-24T07:36:41;18.60;;;17.70;;
2175;SDS011;1094;49.902;10.876;2023-04-24T07:39:07;18.07;;;17.10;;
2175;SDS011;1094;49.902;10.876;2023-04-24T07:41:34;19.30;;;18.13;;
2175;SDS011;1094;49.902;10.876;2023-04-24T07:44:00;18.50;;;17.50;;
2175;SDS011;1094;49.902;10.876;2023-04-24T07:46:25;20.07;;;18.90;;
2175;SDS011;1094;49.902;10.876;2023-04-24T07:48:54;18.90;;;17.90;;
2175;SDS011;1094;49.902;10.876;2023-04-24T07:51:20;19.37;;;18.33;;
2175;SDS011;1094;49.902;10.876;2023-04-24T07:53:46;18.90;;;18.00;;
2175;SDS011;1094;49.902;10.876;2023-04-24T07:56:12;18.93;;;17.83;;
2175;SDS011;1094;49.902;10.876;2023-04-24T07:58:38;19.03;;;18.03;;
2175;SDS011;1094;49.902;10.876;2023-04-24T08:01:05;18.37;;;17.47;;
2175;SDS011;1094;49.902;10.876;2023-04-24T08:03:30;17.73;;;16.83;;
2175;SDS011;1094;49.902;10.876;2023-04-24T08:05:56;17.60;;;16.70;;
2175;SDS011;1094;49.902;10.876;2023-04-24T08:08:22;18.53;;;17.63;;
2175;SDS011;1094;49.902;10.876;2023-04-24T08:10:49;18.40;;;17.50;;
2175;SDS011;1094;49.902;10.876;2023-04-24T08:13:15;19.37;;;18.10;;
2175;SDS011;1094;49.902;10.876;2023-04-24T08:15:41;19.20;;;18.10;;
2175;SDS011;1094;49.902;10.876;2023-04-24T08:18:07;18.80;;;17.70;;
2175;SDS011;1094;49.902;10.876;2023-04-24T08:20:33;19.03;;;18.03;;
2175;SDS011;1094;49.902;10.876;2023-04-24T08:22:59;18.67;;;17.67;;
2175;SDS011;1094;49.902;10.876;2023-04-24T08:25:24;19.57;;;18.57;;
2175;SDS011;1094;49.902;10.876;2023-04-24T08:27:51;19.40;;;18.40;;
2175;SDS011;1094;49.902;10.876;2023-04-24T08:30:17;19.40;;;18.40;;
2175;SDS011;1094;49.902;10.876;2023-04-24T08:32:43;19.13;;;18.13;;
2175;SDS011;1094;49.902;10.876;2023-04-24T08:35:09;18.70;;;17.60;;
2175;SDS011;1094;49.902;10.876;2023-04-24T08:37:35;19.33;;;18.30;;
2175;SDS011;1094;49.902;10.876;2023-04-24T08:40:04;19.43;;;18.43;;
2175;SDS011;1094;49.902;10.876;2023-04-24T08:42:31;20.00;;;18.90;;
2175;SDS011;1094;49.902;10.876;2023-04-24T08:44:59;19.47;;;18.37;;
2175;SDS011;1094;49.902;10.876;2023-04-24T08:47:25;19.70;;;18.70;;
2175;SDS011;1094;49.902;10.876;2023-04-24T08:49:52;19.60;;;18.50;;
2175;SDS011;1094;49.902;10.876;2023-04-24T08:52:18;19.60;;;18.47;;
2175;SDS011;1094;49.902;10.876;2023-04-24T08:54:45;20.40;;;19.20;;
2175;SDS011;1094;49.902;10.876;2023-04-24T08:57:11;19.40;;;18.40;;
2175;SDS011;1094;49.902;10.876;2023-04-24T08:59:39;19.80;;;18.70;;
2175;SDS011;1094;49.902;10.876;2023-04-24T09:02:06;19.50;;;18.50;;
2175;SDS011;1094;49.902;10.876;2023-04-24T09:04:35;19.20;;;18.20;;
2175;SDS011;1094;49.902;10.876;2023-04-24T09:07:01;19.80;;;18.80;;
2175;SDS011;1094;49.902;10.876;2023-04-24T09:09:28;19.60;;;18.60;;
2175;SDS011;1094;49.902;10.876;2023-04-24T09:11:55;19.83;;;18.73;;
2175;SDS011;1094;49.902;10.876;2023-04-24T09:14:22;20.30;;;19.20;;
2175;SDS011;1094;49.902;10.876;2023-04-24T09:16:48;19.20;;;18.20;;
2175;SDS011;1094;49.902;10.876;2023-04-24T09:19:14;19.37;;;18.37;;
2175;SDS011;1094;49.902;10.876;2023-04-24T09:21:40;19.90;;;18.80;;
2175;SDS011;1094;49.902;10.876;2023-04-24T09:24:14;19.03;;;18.03;;
2175;SDS011;1094;49.902;10.876;2023-04-24T09:26:42;19.67;;;18.47;;
2175;SDS011;1094;49.902;10.876;2023-04-24T09:29:13;19.53;;;18.43;;
2175;SDS011;1094;49.902;10.876;2023-04-24T09:31:40;19.40;;;18.40;;
2175;SDS011;1094;49.902;10.876;2023-04-24T09:34:06;20.50;;;19.40;;
2175;SDS011;1094;49.902;10.876;2023-04-24T09:36:33;19.67;;;18.57;;
2175;SDS011;1094;49.902;10.876;2023-04-24T09:39:03;19.50;;;18.50;;
2175;SDS011;1094;49.902;10.876;2023-04-24T09:41:31;19.80;;;18.80;;
2175;SDS011;1094;49.902;10.876;2023-04-24T09:43:58;20.13;;;19.03;;
2175;SDS011;1094;49.902;10.876;2023-04-24T09:46:30;19.57;;;18.57;;
2175;SDS011;1094;49.902;10.876;2023-04-24T09:48:56;20.10;;;19.00;;
2175;SDS011;1094;49.902;10.876;2023-04-24T09:51:35;19.70;;;18.60;;
2175;SDS011;1094;49.902;10.876;2023-04-24T09:54:01;19.90;;;18.80;;
2175;SDS011;1094;49.902;10.876;2023-04-24T09:56:28;20.63;;;19.53;;
2175;SDS011;1094;49.902;10.876;2023-04-24T09:59:04;20.10;;;18.90;;
2175;SDS011;1094;49.902;10.876;2023-04-24T10:01:30;19.73;;;18.70;;
2175;SDS011;1094;49.902;10.876;2023-04-24T10:03:56;19.90;;;18.70;;
2175;SDS011;1094;49.902;10.876;2023-04-24T10:06:22;19.50;;;18.40;;
2175;SDS011;1094;49.902;10.876;2023-04-24T10:08:55;20.20;;;19.20;;
2175;SDS011;1094;49.902;10.876;2023-04-24T10:11:23;21.10;;;20.00;;
2175;SDS011;1094;49.902;10.876;2023-04-24T10:13:49;20.00;;;19.00;;
2175;SDS011;1094;49.902;10.876;2023-04-24T10:16:15;20.07;;;19.07;;
2175;SDS011;1094;49.902;10.876;2023-04-24T10:18:41;19.60;;;18.60;;
2175;SDS011;1094;49.902;10.876;2023-04-24T10:21:07;19.43;;;18.33;;
2175;SDS011;1094;49.902;10.876;2023-04-24T10:23:33;19.63;;;18.63;;
2175;SDS011;1094;49.902;10.876;2023-04-24T10:26:00;19.40;;;18.40;;
2175;SDS011;1094;49.902;10.876;2023-04-24T10:28:26;19.83;;;18.73;;
2175;SDS011;1094;49.902;10.876;2023-04-24T10:30:53;19.73;;;18.60;;
2175;SDS011;1094;49.902;10.876;2023-04-24T10:33:20;19.77;;;18.77;;
2175;SDS011;1094;49.902;10.876;2023-04-24T10:35:47;19.87;;;18.87;;
2175;SDS011;1094;49.902;10.876;2023-04-24T10:38:16;18.70;;;17.80;;
2175;SDS011;1094;49.902;10.876;2023-04-24T10:40:42;18.57;;;17.57;;
2175;SDS011;1094;49.902;10.876;2023-04-24T10:43:09;19.30;;;18.30;;
2175;SDS011;1094;49.902;10.876;2023-04-24T10:45:36;19.40;;;18.40;;
2175;SDS011;1094;49.902;10.876;2023-04-24T10:48:03;19.33;;;18.33;;
2175;SDS011;1094;49.902;10.876;2023-04-24T10:50:44;19.00;;;18.00;;
2175;SDS011;1094;49.902;10.876;2023-04-24T10:53:15;19.70;;;18.70;;
2175;SDS011;1094;49.902;10.876;2023-04-24T10:55:46;19.10;;;18.00;;
2175;SDS011;1094;49.902;10.876;2023-04-24T10:58:12;19.33;;;18.03;;
2175;SDS011;1094;49.902;10.876;2023-04-24T11:00:40;18.70;;;17.80;;
2175;SDS011;1094;49.902;10.876;2023-04-24T11:05:58;19.20;;;18.00;;
2175;SDS011;1094;49.902;10.876;2023-04-24T11:13:24;19.77;;;18.67;;
2175;SDS011;1094;49.902;10.876;2023-04-24T11:18:38;19.57;;;18.57;;
2175;SDS011;1094;49.902;10.876;2023-04-24T11:21:17;19.10;;;18.20;;
2175;SDS011;1094;49.902;10.876;2023-04-24T11:23:44;18.93;;;17.83;;
2175;SDS011;1094;49.902;10.876;2023-04-24T11:26:11;18.90;;;17.90;;
2175;SDS011;1094;49.902;10.876;2023-04-24T11:28:37;19.10;;;18.00;;
2175;SDS011;1094;49.902;10.876;2023-04-24T11:33:54;19.50;;;18.50;;
2175;SDS011;1094;49.902;10.876;2023-04-24T11:36:20;20.50;;;19.40;;
2175;SDS011;1094;49.902;10.876;2023-04-24T11:38:46;19.93;;;18.47;;
2175;SDS011;1094;49.902;10.876;2023-04-24T11:41:12;19.73;;;18.63;;
2175;SDS011;1094;49.902;10.876;2023-04-24T11:43:39;19.00;;;18.00;;
2175;SDS011;1094;49.902;10.876;2023-04-24T11:46:05;18.87;;;17.67;;
2175;SDS011;1094;49.902;10.876;2023-04-24T11:48:34;18.73;;;17.80;;
2175;SDS011;1094;49.902;10.876;2023-04-24T11:51:04;19.43;;;18.50;;
2175;SDS011;1094;49.902;10.876;2023-04-24T11:53:31;19.60;;;18.60;;
2175;SDS011;1094;49.902;10.876;2023-04-24T11:55:56;19.97;;;18.77;;
2175;SDS011;1094;49.902;10.876;2023-04-24T11:58:22;19.67;;;18.67;;
2175;SDS011;1094;49.902;10.876;2023-04-24T12:00:55;19.43;;;18.43;;
2175;SDS011;1094;49.902;10.876;2023-04-24T12:03:21;21.00;;;19.60;;
2175;SDS011;1094;49.902;10.876;2023-04-24T12:05:47;20.10;;;19.00;;
2175;SDS011;1094;49.902;10.876;2023-04-24T12:08:26;19.20;;;18.20;;
2175;SDS011;1094;49.902;10.876;2023-04-24T12:10:53;20.17;;;18.97;;
2175;SDS011;1094;49.902;10.876;2023-04-24T12:13:19;19.63;;;18.53;;
2175;SDS011;1094;49.902;10.876;2023-04-24T12:15:45;19.80;;;18.70;;
2175;SDS011;1094;49.902;10.876;2023-04-24T12:18:11;19.43;;;18.43;;
2175;SDS011;1094;49.902;10.876;2023-04-24T12:20:40;19.20;;;18.20;;
2175;SDS011;1094;49.902;10.876;2023-04-24T12:23:06;19.80;;;18.80;;
2175;SDS011;1094;49.902;10.876;2023-04-24T12:25:32;20.03;;;18.83;;
2175;SDS011;1094;49.902;10.876;2023-04-24T12:30:28;18.87;;;17.97;;
2175;SDS011;1094;49.902;10.876;2023-04-24T12:32:56;19.30;;;18.30;;
2175;SDS011;1094;49.902;10.876;2023-04-24T12:35:23;19.40;;;18.40;;
2175;SDS011;1094;49.902;10.876;2023-04-24T12:37:49;19.50;;;18.40;;
2175;SDS011;1094;49.902;10.876;2023-04-24T12:40:15;20.17;;;18.97;;
2175;SDS011;1094;49.902;10.876;2023-04-24T12:42:42;19.90;;;18.90;;
2175;SDS011;1094;49.902;10.876;2023-04-24T12:45:08;19.67;;;18.50;;
2175;SDS011;1094;49.902;10.876;2023-04-24T12:47:36;19.83;;;18.63;;
2175;SDS011;1094;49.902;10.876;2023-04-24T12:50:03;19.60;;;18.30;;
2175;SDS011;1094;49.902;10.876;2023-04-24T12:52:29;19.77;;;18.67;;
2175;SDS011;1094;49.902;10.876;2023-04-24T12:54:56;19.87;;;18.77;;
2175;SDS011;1094;49.902;10.876;2023-04-24T12:57:23;19.63;;;18.53;;
2175;SDS011;1094;49.902;10.876;2023-04-24T12:59:49;19.33;;;18.23;;
2175;SDS011;1094;49.902;10.876;2023-04-24T13:02:15;18.90;;;18.00;;
2175;SDS011;1094;49.902;10.876;2023-04-24T13:04:45;19.73;;;18.60;;
2175;SDS011;1094;49.902;10.876;2023-04-24T13:07:11;19.07;;;18.07;;
2175;SDS011;1094;49.902;10.876;2023-04-24T13:09:38;18.80;;;17.80;;
2175;SDS011;1094;49.902;10.876;2023-04-24T13:12:04;19.87;;;18.67;;
2175;SDS011;1094;49.902;10.876;2023-04-24T13:14:33;20.17;;;19.17;;
2175;SDS011;1094;49.902;10.876;2023-04-24T13:16:59;19.80;;;18.80;;
2175;SDS011;1094;49.902;10.876;2023-04-24T13:19:25;19.50;;;18.40;;
2175;SDS011;1094;49.902;10.876;2023-04-24T13:21:51;19.70;;;18.50;;
2175;SDS011;1094;49.902;10.876;2023-04-24T13:24:18;20.40;;;19.10;;
2175;SDS011;1094;49.902;10.876;2023-04-24T13:26:44;19.77;;;18.73;;
2175;SDS011;1094;49.902;10.876;2023-04-24T13:29:10;19.00;;;18.00;;
2175;SDS011;1094;49.902;10.876;2023-04-24T13:31:36;19.10;;;18.10;;
2175;SDS011;1094;49.902;10.876;2023-04-24T13:34:03;19.63;;;18.40;;
2175;SDS011;1094;49.902;10.876;2023-04-24T13:36:29;19.20;;;18.10;;
2175;SDS011;1094;49.902;10.876;2023-04-24T13:38:56;19.43;;;18.43;;
2175;SDS011;1094;49.902;10.876;2023-04-24T13:41:22;18.83;;;17.83;;
2175;SDS011;1094;49.902;10.876;2023-04-24T13:43:48;18.67;;;17.67;;
2175;SDS011;1094;49.902;10.876;2023-04-24T13:46:14;19.17;;;18.23;;
2175;SDS011;1094;49.902;10.876;2023-04-24T13:48:40;19.60;;;18.40;;
2175;SDS011;1094;49.902;10.876;2023-04-24T13:51:06;19.00;;;18.10;;
2175;SDS011;1094;49.902;10.876;2023-04-24T13:53:32;19.13;;;18.20;;
2175;SDS011;1094;49.902;10.876;2023-04-24T13:56:01;20.00;;;18.90;;
2175;SDS011;1094;49.902;10.876;2023-04-24T13:58:27;19.40;;;18.40;;
2175;SDS011;1094;49.902;10.876;2023-04-24T14:00:53;19.87;;;18.77;;
2175;SDS011;1094;49.902;10.876;2023-04-24T14:03:18;19.93;;;18.83;;
2175;SDS011;1094;49.902;10.876;2023-04-24T14:05:44;20.07;;;19.07;;
2175;SDS011;1094;49.902;10.876;2023-04-24T14:08:10;20.63;;;19.33;;
2175;SDS011;1094;49.902;10.876;2023-04-24T14:10:36;20.80;;;19.70;;
2175;SDS011;1094;49.902;10.876;2023-04-24T14:13:02;20.30;;;19.20;;
2175;SDS011;1094;49.902;10.876;2023-04-24T14:15:28;20.30;;;19.30;;
2175;SDS011;1094;49.902;10.876;2023-04-24T14:17:54;20.90;;;19.80;;
2175;SDS011;1094;49.902;10.876;2023-04-24T14:20:20;20.23;;;19.23;;
2175;SDS011;1094;49.902;10.876;2023-04-24T14:22:47;21.20;;;20.00;;
2175;SDS011;1094;49.902;10.876;2023-04-24T14:25:13;20.37;;;19.27;;
2175;SDS011;1094;49.902;10.876;2023-04-24T14:27:38;20.67;;;19.57;;
2175;SDS011;1094;49.902;10.876;2023-04-24T14:30:05;20.83;;;19.63;;
2175;SDS011;1094;49.902;10.876;2023-04-24T14:32:33;21.27;;;20.10;;
2175;SDS011;1094;49.902;10.876;2023-04-24T14:35:00;20.70;;;19.60;;
2175;SDS011;1094;49.902;10.876;2023-04-24T14:37:26;20.03;;;19.00;;
2175;SDS011;1094;49.902;10.876;2023-04-24T14:39:52;21.20;;;20.00;;
2175;SDS011;1094;49.902;10.876;2023-04-24T14:42:18;20.83;;;19.73;;
2175;SDS011;1094;49.902;10.876;2023-04-24T14:44:44;20.60;;;19.50;;